Track Скачков Татьяна 4747

Time Latitude Longitude Accuracy (66% radius in meters) Altitude (meters) Speed (km/hour) Bearing (degrees) Battery (%) GPS flag
10:24:01 51.778791 39.293731 4 101.10818427975 0.030866635963321 333.22909545898 79 1 delete
10:23:49 51.778790 39.293701 8 101.00111960559 0.22140990197659 130.03033447266 79 1 delete
10:23:43 51.778783 39.293708 8 101.0379387724 0.06226072460413 130.03033447266 79 1 delete
10:23:37 51.778781 39.293725 6 100.77305276872 0.11386062204838 316.70620727539 79 1 delete
10:23:31 51.778789 39.293729 6 100.01927637247 0.028106141835451 316.70620727539 79 1 delete
10:23:28 51.778794 39.293719 6 99.95861122224 0.11789548397064 316.70620727539 79 1 delete
10:23:22 51.778800 39.293705 6 99.984365047016 0.15542486310005 316.70620727539 79 1 delete
10:23:10 51.778829 39.293705 6 100.58437702306 0.15289552509785 316.70620727539 79 1 delete
10:23:07 51.778822 39.293707 8 100.86661704516 0.18543577194214 316.70620727539 79 1 delete
10:23:04 51.778806 39.293702 6 100.91839735905 0.040806028991938 130.9835357666 79 1 delete
10:22:55 51.778791 39.293704 8 100.86529261512 0.1175187677145 130.9835357666 79 1 delete
10:22:49 51.778784 39.293710 4 100.92364128312 0.012401202693582 130.9835357666 79 1 delete
10:22:43 51.778792 39.293724 6 100.88218204354 0.19165746867657 130.9835357666 79 1 delete
10:22:34 51.778794 39.293697 6 100.98684180159 0.26973986625671 322.68771362305 79 1 delete
10:22:28 51.778780 39.293683 8 101.08900634193 0.18625190854073 310.6926574707 79 1 delete
10:22:22 51.778761 39.293697 8 101.27429407928 0.17701488733292 305.46774291992 79 1 delete
10:22:16 51.778765 39.293711 6 101.138938997 0.17966464161873 138.80879211426 79 1 delete
10:22:10 51.778777 39.293735 8 100.86584171891 0.13108453154564 314.34912109375 79 1 delete
10:22:01 51.778784 39.293722 6 100.67600288414 0.0084611186757684 314.34912109375 79 1 delete
10:21:55 51.778803 39.293717 8 100.59034043701 0.25983482599258 326.58972167969 79 1 delete
10:21:49 51.778815 39.293702 4 100.35876526939 0.034110803157091 150.64901733398 79 1 delete
10:21:43 51.778796 39.293702 8 100.28867491204 0.13281552493572 150.64901733398 79 1 delete
10:21:34 51.778782 39.293708 8 100.52468874558 0.1120645403862 120.14256286621 79 1 delete
10:21:28 51.778777 39.293700 8 100.75526125638 0.08348348736763 120.14256286621 79 1 delete
10:21:22 51.778785 39.293707 4 100.79016703679 0.016904722899199 120.14256286621 79 1 delete
10:21:13 51.778779 39.293715 6 101.44009835275 0.014326918870211 120.14256286621 79 1 delete
10:21:07 51.778775 39.293709 4 101.53120213187 0.12668517231941 120.14256286621 79 1 delete
10:21:01 51.778780 39.293708 4 101.76250980367 0.11902219802141 120.14256286621 79 1 delete
10:20:52 51.778782 39.293708 6 101.38641881823 0.12375567108393 120.14256286621 79 1 delete
10:20:46 51.778790 39.293709 6 101.74648045136 0.044144339859486 120.14256286621 79 1 delete
10:20:40 51.778781 39.293720 6 101.99137298719 0.12431628257036 120.14256286621 79 1 delete
10:20:34 51.778778 39.293746 8 101.92015266285 0.10925222933292 120.14256286621 79 1 delete
10:20:25 51.778772 39.293739 8 102.59288245542 0.10112480819225 120.14256286621 79 1 delete
10:20:19 51.778766 39.293710 8 102.5372121452 0.15141731500626 120.14256286621 79 1 delete
10:20:13 51.778780 39.293710 6 102.82908974511 0.28471231460571 321.42880249023 79 1 delete
10:20:10 51.778783 39.293711 6 102.98196671047 0.066765554249287 317.30838012695 79 1 delete
10:20:07 51.778791 39.293713 8 102.75852501692 0.1468200981617 317.30838012695 79 1 delete
10:20:01 51.778807 39.293732 8 102.57976411487 0.034358818084002 317.30838012695 79 1 delete
10:19:58 51.778803 39.293750 6 102.4253890117 0.023728871718049 275.53982543945 79 1 delete
10:19:52 51.778781 39.293775 4 102.00931279764 0.062150478363037 275.53982543945 79 1 delete
10:19:46 51.778759 39.293817 6 101.82126169265 0.045565769076347 275.53982543945 79 1 delete
10:19:40 51.778758 39.293804 6 101.74876689226 0.23187354207039 275.53982543945 79 1 delete
10:19:31 51.778771 39.293809 4 101.26887326795 0.036066055297852 201.45132446289 79 1 delete
10:19:25 51.778781 39.293818 6 100.92631942547 0.11188192665577 201.45132446289 79 1 delete
10:19:16 51.778784 39.293816 8 100.53888761214 0.10805363953114 201.45132446289 79 1 delete
10:19:10 51.778792 39.293774 8 100.0449880233 0.17272602021694 201.45132446289 79 1 delete
10:19:04 51.778795 39.293723 6 99.207257064779 0.062816128134727 201.45132446289 79 1 delete
10:19:01 51.778777 39.293718 8 99.151945161997 0.16665321588516 201.45132446289 79 1 delete
10:18:55 51.778743 39.293724 8 99.20694720862 0.14072939753532 201.45132446289 79 1 delete
10:18:52 51.778732 39.293732 8 99.236422352097 0.0062280325219035 201.45132446289 79 1 delete